createdAt,value
2022-10-03T07:53:21.088Z,100.00
2022-10-03T07:56:11.132Z,100.00
2022-10-03T07:59:21.345Z,100.00
2022-10-03T08:02:17.708Z,100.00
2022-10-03T08:05:25.245Z,100.00
2022-10-03T08:08:50.307Z,100.00
2022-10-03T08:11:50.034Z,100.00
2022-10-03T08:14:35.275Z,100.00
2022-10-03T08:18:17.573Z,100.00
2022-10-03T08:20:56.363Z,100.00
2022-10-03T08:24:06.695Z,100.00
2022-10-03T08:27:14.537Z,100.00
2022-10-03T08:30:23.348Z,100.00
2022-10-03T08:33:34.609Z,100.00
2022-10-03T08:37:02.243Z,100.00
2022-10-03T08:40:02.814Z,100.00
2022-10-03T08:43:11.301Z,100.00
2022-10-03T08:46:06.000Z,100.00
2022-10-03T08:49:04.467Z,100.00
2022-10-03T08:52:10.045Z,100.00
2022-10-03T08:55:45.644Z,100.00
2022-10-03T08:59:17.281Z,100.00
2022-10-03T09:02:42.601Z,100.00
2022-10-03T09:06:24.575Z,100.00
2022-10-03T09:09:24.761Z,100.00
2022-10-03T09:13:16.442Z,100.00
2022-10-03T09:16:45.617Z,100.00
2022-10-03T09:20:15.830Z,100.00
2022-10-03T09:23:35.730Z,100.00
2022-10-03T09:27:10.001Z,100.00
2022-10-03T09:30:23.015Z,100.00
2022-10-03T09:33:41.985Z,100.00
2022-10-03T09:36:58.898Z,100.00
2022-10-03T09:40:20.993Z,100.00
2022-10-03T09:44:03.471Z,100.00
2022-10-03T09:47:28.181Z,100.00
2022-10-03T09:54:17.919Z,100.00
2022-10-03T09:57:43.287Z,100.00
2022-10-03T10:00:27.625Z,100.00
2022-10-03T10:03:50.045Z,100.00
2022-10-03T10:07:16.425Z,100.00
2022-10-03T10:10:32.139Z,100.00
2022-10-03T10:13:40.019Z,100.00
2022-10-03T10:16:57.133Z,100.00
2022-10-03T10:19:59.186Z,100.00
2022-10-03T10:23:11.513Z,100.00
2022-10-03T10:26:59.823Z,100.00
2022-10-03T10:30:10.871Z,100.00
2022-10-03T10:33:59.172Z,100.00
2022-10-03T10:37:23.662Z,100.00
2022-10-03T10:41:13.174Z,100.00
2022-10-03T10:45:04.118Z,100.00
2022-10-03T10:49:08.106Z,100.00
2022-10-03T10:52:37.418Z,100.00
2022-10-03T10:56:36.688Z,100.00
2022-10-03T11:00:05.884Z,100.00
2022-10-03T11:03:57.351Z,100.00
2022-10-03T11:07:39.049Z,100.00
2022-10-03T11:10:37.013Z,100.00
2022-10-03T11:14:28.151Z,100.00
2022-10-03T11:17:58.457Z,100.00
2022-10-03T11:21:25.891Z,100.00
2022-10-03T11:24:17.631Z,100.00
2022-10-03T11:27:37.244Z,100.00
2022-10-03T11:30:51.324Z,100.00
2022-10-03T11:34:38.212Z,100.00
2022-10-03T11:37:13.505Z,100.00
2022-10-03T11:39:50.560Z,100.00
2022-10-03T11:42:47.246Z,100.00
2022-10-03T11:45:25.976Z,100.00
2022-10-03T11:48:19.386Z,100.00
2022-10-03T11:50:51.410Z,100.00
2022-10-03T11:53:49.633Z,100.00
2022-10-03T11:56:35.571Z,100.00
2022-10-03T11:59:26.960Z,100.00
2022-10-03T12:02:09.088Z,100.00
2022-10-03T12:04:59.216Z,100.00
2022-10-03T12:08:02.842Z,100.00
2022-10-03T12:10:48.356Z,100.00
2022-10-03T12:13:24.777Z,100.00
2022-10-03T12:15:58.828Z,100.00
2022-10-03T12:18:51.574Z,100.00
2022-10-03T12:21:25.561Z,100.00
2022-10-03T12:24:14.248Z,100.00
2022-10-03T12:26:52.267Z,100.00
2022-10-03T12:29:26.447Z,100.00
2022-10-03T12:32:25.149Z,100.00
2022-10-03T12:35:07.904Z,100.00
2022-10-03T12:38:00.167Z,100.00
2022-10-03T12:40:33.860Z,100.00
2022-10-03T12:43:24.377Z,100.00
2022-10-03T12:46:00.348Z,100.00
2022-10-03T12:48:45.876Z,100.00
2022-10-03T12:51:36.573Z,100.00
2022-10-03T12:54:16.841Z,100.00
2022-10-03T12:56:50.654Z,100.00
2022-10-03T12:59:38.321Z,100.00
2022-10-03T13:02:32.659Z,100.00
2022-10-03T13:05:33.509Z,100.00
2022-10-03T13:08:07.406Z,100.00
2022-10-03T13:10:42.885Z,100.00
2022-10-03T13:13:24.789Z,100.00
2022-10-03T13:16:17.201Z,100.00
2022-10-03T13:18:56.858Z,100.00
2022-10-03T13:21:48.396Z,100.00
2022-10-03T13:24:32.298Z,100.00
2022-10-03T13:27:29.047Z,100.00
2022-10-03T13:30:06.341Z,100.00
2022-10-03T13:32:37.673Z,100.00
2022-10-03T13:35:39.400Z,100.00
2022-10-03T13:38:45.797Z,100.00
2022-10-03T13:41:33.884Z,100.00
2022-10-03T13:44:09.955Z,100.00
2022-10-03T13:46:46.687Z,100.00
2022-10-03T13:49:24.720Z,100.00
2022-10-03T13:52:02.866Z,100.00
2022-10-03T13:54:56.092Z,100.00
2022-10-03T13:57:28.990Z,100.00
2022-10-03T14:00:08.332Z,96.89
2022-10-03T14:03:10.020Z,96.25
2022-10-03T14:06:24.171Z,88.19
2022-10-03T14:09:28.196Z,90.92
2022-10-03T14:12:06.108Z,82.58
2022-10-03T14:15:08.175Z,82.00
2022-10-03T14:17:43.863Z,75.92
2022-10-03T14:20:25.078Z,75.57
2022-10-03T14:23:08.910Z,77.60
2022-10-03T14:25:45.814Z,74.87
2022-10-03T14:28:20.671Z,71.75
2022-10-03T14:31:06.683Z,70.43
2022-10-03T14:33:44.462Z,69.22
2022-10-03T14:36:29.878Z,73.44
2022-10-03T14:39:26.780Z,76.61
2022-10-03T14:42:38.058Z,78.34
2022-10-03T14:45:10.504Z,79.48
2022-10-03T14:47:43.963Z,71.50
2022-10-03T14:50:18.995Z,72.07
2022-10-03T14:53:04.566Z,74.13
2022-10-03T14:55:44.996Z,79.01
2022-10-03T14:58:21.669Z,75.42
2022-10-03T15:00:55.351Z,74.37
2022-10-03T15:03:38.028Z,76.39
2022-10-03T15:06:37.398Z,78.50
2022-10-03T15:09:11.262Z,79.57
2022-10-03T15:11:49.756Z,81.92
2022-10-03T15:14:21.121Z,82.72
2022-10-03T15:16:54.793Z,86.18
2022-10-03T15:19:30.269Z,91.91
2022-10-03T15:22:22.956Z,95.64
2022-10-03T15:24:57.638Z,95.93
2022-10-03T15:27:28.180Z,95.81
2022-10-03T15:30:01.298Z,100.00
2022-10-03T15:32:36.000Z,100.00
2022-10-03T15:35:07.206Z,100.00
2022-10-03T15:37:46.772Z,100.00
2022-10-03T15:40:30.989Z,100.00
2022-10-03T15:43:09.265Z,100.00
2022-10-03T15:45:40.730Z,100.00
2022-10-03T15:48:14.550Z,100.00
2022-10-03T15:50:47.421Z,100.00
2022-10-03T15:53:36.071Z,100.00
2022-10-03T15:56:13.517Z,100.00
2022-10-03T15:58:48.733Z,100.00
2022-10-03T16:01:23.493Z,100.00
2022-10-03T16:03:55.644Z,100.00
2022-10-03T16:06:30.198Z,100.00
2022-10-03T16:09:07.936Z,100.00
2022-10-03T16:11:45.910Z,100.00
2022-10-03T16:14:20.281Z,100.00
2022-10-03T16:16:53.493Z,100.00
2022-10-03T16:19:39.423Z,100.00
2022-10-03T16:22:18.416Z,100.00
2022-10-03T16:25:15.337Z,100.00
2022-10-03T16:27:53.950Z,100.00
2022-10-03T16:30:27.888Z,100.00
2022-10-03T16:33:05.033Z,100.00
2022-10-03T16:35:38.070Z,100.00
2022-10-03T16:38:19.237Z,100.00
2022-10-03T16:40:58.190Z,100.00
2022-10-03T16:43:32.141Z,100.00
2022-10-03T16:46:05.503Z,100.00
2022-10-03T16:48:54.391Z,100.00
2022-10-03T16:51:27.868Z,100.00
2022-10-03T16:53:57.631Z,100.00
2022-10-03T16:56:33.694Z,100.00
2022-10-03T16:59:07.847Z,100.00
2022-10-03T17:01:41.260Z,100.00
2022-10-03T17:04:22.394Z,100.00
2022-10-03T17:06:59.782Z,100.00
2022-10-03T17:09:37.783Z,100.00
2022-10-03T17:12:13.877Z,100.00
2022-10-03T17:14:44.575Z,100.00
2022-10-03T17:17:27.569Z,100.00
2022-10-03T17:20:01.354Z,100.00
2022-10-03T17:22:37.652Z,100.00
2022-10-03T17:25:30.103Z,100.00
2022-10-03T17:27:59.875Z,100.00
2022-10-03T17:30:34.349Z,100.00
2022-10-03T17:33:09.421Z,100.00
2022-10-03T17:35:50.448Z,100.00
2022-10-03T17:38:48.909Z,100.00
2022-10-03T17:41:23.651Z,100.00
2022-10-03T17:44:12.443Z,100.00
2022-10-03T17:46:45.710Z,100.00
2022-10-03T17:49:25.015Z,100.00
2022-10-03T17:51:56.280Z,100.00
2022-10-03T17:54:30.168Z,100.00
2022-10-03T17:57:06.143Z,100.00
2022-10-03T17:59:44.334Z,100.00
2022-10-03T18:02:21.260Z,100.00
2022-10-03T18:04:59.789Z,100.00
2022-10-03T18:07:31.813Z,100.00
2022-10-03T18:10:01.274Z,100.00
2022-10-03T18:12:35.186Z,100.00
2022-10-03T18:15:41.237Z,100.00
2022-10-03T18:19:04.366Z,100.00
2022-10-03T18:21:47.679Z,100.00
2022-10-03T18:24:31.925Z,100.00
2022-10-03T18:27:12.212Z,100.00
2022-10-03T18:29:48.695Z,100.00
2022-10-03T18:32:23.397Z,100.00
2022-10-03T18:35:04.313Z,100.00
2022-10-03T18:38:00.334Z,100.00
2022-10-03T18:40:35.696Z,100.00
2022-10-03T18:43:07.560Z,100.00
2022-10-03T18:45:44.644Z,100.00
2022-10-03T18:48:20.606Z,100.00
2022-10-03T18:50:59.199Z,100.00
2022-10-03T18:53:36.330Z,100.00
2022-10-03T18:56:10.919Z,100.00
2022-10-03T18:58:44.987Z,100.00
2022-10-03T19:01:19.223Z,100.00
2022-10-03T19:03:59.618Z,100.00
2022-10-03T19:06:32.064Z,100.00
2022-10-03T19:09:09.429Z,100.00
2022-10-03T19:11:42.467Z,100.00
2022-10-03T19:14:15.237Z,100.00
2022-10-03T19:17:14.261Z,100.00
2022-10-03T19:19:55.371Z,100.00
2022-10-03T19:22:32.172Z,100.00
2022-10-03T19:25:05.169Z,100.00
2022-10-03T19:27:50.049Z,100.00
2022-10-03T19:30:21.939Z,100.00
2022-10-03T19:32:56.321Z,100.00
2022-10-03T19:35:26.460Z,100.00
2022-10-03T19:37:58.176Z,100.00
2022-10-03T19:40:42.353Z,100.00
2022-10-03T19:43:49.593Z,100.00
2022-10-03T19:46:48.699Z,100.00
2022-10-03T19:49:53.447Z,100.00
2022-10-03T19:52:28.099Z,100.00
2022-10-03T19:55:03.821Z,100.00
2022-10-03T19:57:42.879Z,100.00
2022-10-03T20:00:30.269Z,100.00
2022-10-03T20:03:13.602Z,100.00
2022-10-03T20:06:02.916Z,100.00
2022-10-03T20:08:39.274Z,100.00
2022-10-03T20:11:23.988Z,100.00
2022-10-03T20:13:54.381Z,100.00
2022-10-03T20:16:29.988Z,100.00
2022-10-03T20:19:06.763Z,100.00
2022-10-03T20:21:36.505Z,100.00
2022-10-03T20:24:14.192Z,100.00
2022-10-03T20:26:50.784Z,100.00
2022-10-03T20:29:29.582Z,100.00
2022-10-03T20:32:05.908Z,100.00
2022-10-03T20:34:37.005Z,100.00
2022-10-03T20:37:27.340Z,100.00
2022-10-03T20:40:04.348Z,100.00
2022-10-03T20:42:34.329Z,100.00
2022-10-03T20:45:05.071Z,100.00
2022-10-03T20:47:49.662Z,100.00
2022-10-03T20:50:29.162Z,100.00
2022-10-03T20:53:02.736Z,100.00
2022-10-03T20:55:36.947Z,100.00
2022-10-03T20:58:16.221Z,100.00
2022-10-03T21:00:49.583Z,100.00
2022-10-03T21:03:29.629Z,100.00
2022-10-03T21:06:00.024Z,100.00
2022-10-03T21:08:33.850Z,100.00
2022-10-03T21:11:05.780Z,100.00
2022-10-03T21:13:38.068Z,100.00
2022-10-03T21:16:20.650Z,100.00
2022-10-03T21:18:53.649Z,100.00
2022-10-03T21:21:27.794Z,100.00
2022-10-03T21:24:04.046Z,100.00
2022-10-03T21:26:39.498Z,100.00
2022-10-03T21:29:27.537Z,100.00
2022-10-03T21:32:18.452Z,100.00
2022-10-03T21:34:56.717Z,100.00
2022-10-03T21:37:35.459Z,100.00
2022-10-03T21:40:22.403Z,100.00
2022-10-03T21:43:02.836Z,100.00
2022-10-03T21:45:41.266Z,100.00
2022-10-03T21:48:19.732Z,100.00
2022-10-03T21:50:55.860Z,100.00
2022-10-03T21:53:34.376Z,100.00
2022-10-03T21:56:40.048Z,100.00
2022-10-03T21:59:40.895Z,100.00
2022-10-03T22:02:18.770Z,100.00
2022-10-03T22:04:52.084Z,100.00
2022-10-03T22:07:39.229Z,100.00
2022-10-03T22:10:21.658Z,100.00
2022-10-03T22:12:53.848Z,100.00
2022-10-03T22:15:32.262Z,100.00
2022-10-03T22:18:05.216Z,100.00
2022-10-03T22:20:36.100Z,100.00
2022-10-03T22:23:21.524Z,100.00
2022-10-03T22:26:04.675Z,100.00
2022-10-03T22:28:46.877Z,100.00
2022-10-03T22:31:24.199Z,100.00
2022-10-03T22:34:15.252Z,100.00
2022-10-03T22:36:44.881Z,100.00
2022-10-03T22:39:20.142Z,100.00
2022-10-03T22:41:53.926Z,100.00
2022-10-03T22:44:27.476Z,100.00
2022-10-03T22:47:00.473Z,100.00
2022-10-03T22:49:35.089Z,100.00
2022-10-03T22:52:06.620Z,100.00
2022-10-03T22:54:40.801Z,100.00
2022-10-03T22:57:10.768Z,100.00
2022-10-03T22:59:46.367Z,100.00
2022-10-03T23:02:17.196Z,100.00
2022-10-03T23:04:50.317Z,100.00
2022-10-03T23:07:40.117Z,100.00
2022-10-03T23:10:24.240Z,100.00
2022-10-03T23:13:01.792Z,100.00
2022-10-03T23:15:34.687Z,100.00
2022-10-03T23:18:36.202Z,100.00
2022-10-03T23:21:08.092Z,100.00
2022-10-03T23:24:02.902Z,100.00
2022-10-03T23:27:10.356Z,100.00
2022-10-03T23:29:39.604Z,100.00
2022-10-03T23:32:09.487Z,100.00
2022-10-03T23:35:13.975Z,100.00
2022-10-03T23:37:45.836Z,100.00
2022-10-03T23:40:40.019Z,100.00
2022-10-03T23:43:34.625Z,100.00
2022-10-03T23:46:06.368Z,100.00
2022-10-03T23:48:44.699Z,100.00
2022-10-03T23:51:16.225Z,100.00
2022-10-03T23:53:51.373Z,100.00
2022-10-03T23:56:34.821Z,100.00
2022-10-03T23:59:19.842Z,100.00
